Aviation Digital Data Service (ADDS)

Output produced by METARs form (1116 UTC 01 September 2014)
found at http://www.aviationweather.gov/adds/metars/
 
SEGU 011100Z 22007KT 9999 SCT030 SCT100 20/18 Q1011 RMK A2987 NOSIG
SEGU 010400Z 0106/0206 22008KT 9999 SCT020 BKN100 
     FM011200 20008KT 9999 SCT025 BKN100 
     FM011800 15008KT 9999 FEW030 SCT120 
     FM020000 23010KT 9999 SCT120 TX31/0120Z TN21/0110Z
       
SEMT 011100Z 19008KT 9999 SCT020 SCT080 21/19 Q1012
SEMT 010930Z 0112/0212 20010KT 9999 BKN020 
     FM011800 22015KT 9999 FEW026 
     FM020000 21010KT 9999 SCT023 
     BECMG 0207/0209 BKN020 TX31/0120Z TN21/0210Z